createdAt,value
2018-12-20T00:02:48.009Z,43.37
2018-12-20T00:05:51.447Z,42.63
2018-12-20T00:08:54.774Z,47.93
2018-12-20T00:11:58.031Z,42.57
2018-12-20T00:15:01.844Z,46.13
2018-12-20T00:18:05.138Z,45.57
2018-12-20T00:21:08.398Z,41.47
2018-12-20T00:24:11.648Z,47.63
2018-12-20T00:27:15.005Z,44.10
2018-12-20T00:30:19.290Z,48.90
2018-12-20T00:33:22.716Z,42.87
2018-12-20T00:36:26.063Z,44.30
2018-12-20T00:39:29.720Z,43.13
2018-12-20T00:42:33.067Z,44.27
2018-12-20T00:45:36.335Z,46.83
2018-12-20T00:48:46.411Z,48.80
2018-12-20T00:51:49.877Z,48.80
2018-12-20T00:54:53.388Z,54.60
2018-12-20T00:57:56.654Z,50.43
2018-12-20T01:00:59.779Z,51.10
2018-12-20T01:04:03.171Z,51.90
2018-12-20T01:07:06.518Z,57.73
2018-12-20T01:10:10.450Z,53.80
2018-12-20T01:13:13.908Z,54.13
2018-12-20T01:16:17.353Z,61.70
2018-12-20T01:19:20.672Z,58.33
2018-12-20T01:22:23.922Z,57.80
2018-12-20T01:25:27.105Z,55.23
2018-12-20T01:28:30.554Z,57.53
2018-12-20T01:31:34.527Z,59.23
2018-12-20T01:34:37.753Z,57.87
2018-12-20T01:37:41.354Z,68.87
2018-12-20T01:40:45.229Z,57.23
2018-12-20T01:43:48.634Z,59.00
2018-12-20T01:46:51.890Z,55.90
2018-12-20T01:49:55.334Z,59.63
2018-12-20T01:52:58.903Z,55.33
2018-12-20T01:56:02.328Z,58.30
2018-12-20T01:59:06.929Z,57.80
2018-12-20T02:02:10.857Z,57.07
2018-12-20T02:05:14.248Z,58.23
2018-12-20T02:08:17.575Z,54.30
2018-12-20T02:11:20.936Z,50.23
2018-12-20T02:14:24.157Z,62.60
2018-12-20T02:17:27.358Z,59.93
2018-12-20T02:20:30.558Z,58.43
2018-12-20T02:23:33.776Z,64.53
2018-12-20T02:26:37.345Z,60.77
2018-12-20T02:29:40.646Z,64.43
2018-12-20T02:32:43.849Z,67.57
2018-12-20T02:35:47.214Z,57.37
2018-12-20T02:38:50.655Z,56.63
2018-12-20T02:41:54.094Z,59.70
2018-12-20T02:44:57.352Z,57.40
2018-12-20T02:48:00.562Z,55.47
2018-12-20T02:51:03.745Z,58.80
2018-12-20T02:54:06.997Z,59.70
2018-12-20T02:57:10.841Z,58.20
2018-12-20T03:00:14.051Z,64.13
2018-12-20T03:03:17.366Z,56.80
2018-12-20T03:06:20.728Z,60.33
2018-12-20T03:09:24.247Z,56.47
2018-12-20T03:12:27.531Z,59.43
2018-12-20T03:15:30.891Z,59.00
2018-12-20T03:18:34.195Z,61.07
2018-12-20T03:21:37.522Z,63.63
2018-12-20T03:24:40.748Z,71.67
2018-12-20T03:27:43.913Z,57.93
2018-12-20T03:30:47.260Z,62.83
2018-12-20T03:33:50.815Z,65.97
2018-12-20T03:36:54.201Z,70.83
2018-12-20T03:39:57.444Z,62.63
2018-12-20T03:43:00.839Z,60.00
2018-12-20T03:46:04.191Z,61.70
2018-12-20T03:49:07.660Z,61.50
2018-12-20T03:52:11.535Z,68.23
2018-12-20T03:55:14.733Z,68.13
2018-12-20T03:58:18.018Z,63.40
2018-12-20T04:01:21.212Z,63.20
2018-12-20T04:04:24.640Z,62.63
2018-12-20T04:07:27.997Z,63.30
2018-12-20T04:10:31.202Z,64.07
2018-12-20T04:13:34.400Z,64.57
2018-12-20T04:16:37.693Z,74.93
2018-12-20T04:19:40.955Z,70.83
2018-12-20T04:22:44.620Z,75.67
2018-12-20T04:25:48.012Z,72.43
2018-12-20T04:28:51.250Z,80.50
2018-12-20T04:31:54.584Z,80.67
2018-12-20T04:34:58.035Z,76.07
2018-12-20T04:38:01.296Z,82.27
2018-12-20T04:41:04.697Z,76.27
2018-12-20T04:44:08.088Z,76.23
2018-12-20T04:47:11.623Z,72.43
2018-12-20T04:50:15.133Z,64.43
2018-12-20T04:53:18.393Z,62.57
2018-12-20T04:56:21.812Z,59.90
2018-12-20T04:59:25.353Z,70.23
2018-12-20T05:02:28.861Z,68.27
2018-12-20T05:05:32.105Z,71.93
2018-12-20T05:08:35.405Z,68.07
2018-12-20T05:11:38.616Z,65.07
2018-12-20T05:14:42.251Z,73.50
2018-12-20T05:17:46.003Z,69.13
2018-12-20T05:20:49.442Z,76.57
2018-12-20T05:23:52.755Z,78.33
2018-12-20T05:26:56.346Z,74.43
2018-12-20T05:29:59.582Z,82.20
2018-12-20T05:33:02.881Z,90.23
2018-12-20T05:36:06.219Z,82.57
2018-12-20T05:39:09.857Z,104.10
2018-12-20T05:42:13.096Z,91.83
2018-12-20T05:45:16.357Z,79.77
2018-12-20T05:48:19.608Z,75.80
2018-12-20T05:51:23.021Z,81.23
2018-12-20T05:54:26.253Z,85.03
2018-12-20T05:57:29.884Z,74.83
2018-12-20T06:00:33.091Z,74.00
2018-12-20T06:03:36.785Z,91.07
2018-12-20T06:06:40.125Z,80.80
2018-12-20T06:09:43.650Z,88.87
2018-12-20T06:12:47.089Z,85.77
2018-12-20T06:15:50.421Z,86.10
2018-12-20T06:18:53.594Z,84.67
2018-12-20T06:21:57.113Z,82.83
2018-12-20T06:25:00.365Z,83.40
2018-12-20T06:28:03.613Z,83.40
2018-12-20T06:31:06.774Z,84.03
2018-12-20T06:34:10.059Z,85.77
2018-12-20T06:37:13.370Z,83.47
2018-12-20T06:40:16.573Z,82.43
2018-12-20T06:43:19.742Z,87.40
2018-12-20T06:46:23.073Z,87.60
2018-12-20T06:49:26.253Z,87.13
2018-12-20T06:52:29.478Z,88.10
2018-12-20T06:55:32.646Z,90.57
2018-12-20T06:58:35.985Z,89.27
2018-12-20T07:01:39.141Z,85.13
2018-12-20T07:04:42.376Z,80.43
2018-12-20T07:07:45.630Z,91.77
2018-12-20T07:10:48.972Z,81.47
2018-12-20T07:13:52.122Z,78.17
2018-12-20T07:16:55.426Z,92.20
2018-12-20T07:19:58.614Z,85.47
2018-12-20T07:23:01.877Z,77.47
2018-12-20T07:26:05.010Z,81.17
2018-12-20T07:29:08.237Z,85.10
2018-12-20T07:32:11.394Z,89.13
2018-12-20T07:35:14.623Z,83.90
2018-12-20T07:38:18.422Z,75.80
2018-12-20T07:41:21.594Z,89.33
2018-12-20T07:44:24.793Z,85.20
2018-12-20T07:47:27.985Z,80.10
2018-12-20T07:50:31.207Z,81.73
2018-12-20T07:53:34.373Z,87.57
2018-12-20T07:56:37.602Z,86.10
2018-12-20T07:59:40.766Z,82.57
2018-12-20T08:02:44.054Z,84.53
2018-12-20T08:05:47.263Z,84.23
2018-12-20T08:08:50.486Z,90.63
2018-12-20T08:11:53.649Z,84.07
2018-12-20T08:14:56.884Z,84.83
2018-12-20T08:18:01.064Z,81.93
2018-12-20T08:21:04.286Z,84.43
2018-12-20T08:24:07.450Z,89.90
2018-12-20T08:27:10.934Z,83.37
2018-12-20T08:30:14.026Z,78.20
2018-12-20T08:33:17.390Z,78.47
2018-12-20T08:36:20.543Z,74.63
2018-12-20T08:39:23.773Z,73.67
2018-12-20T08:42:26.934Z,77.93
2018-12-20T08:45:30.161Z,76.90
2018-12-20T08:48:33.321Z,83.60
2018-12-20T08:51:37.360Z,71.63
2018-12-20T08:54:40.629Z,67.17
2018-12-20T08:57:43.826Z,71.27
2018-12-20T09:00:47.022Z,74.63
2018-12-20T09:03:50.218Z,68.83
2018-12-20T09:06:53.413Z,74.70
2018-12-20T09:09:56.606Z,65.77
2018-12-20T09:12:59.921Z,67.90
2018-12-20T09:16:03.102Z,69.10
2018-12-20T09:19:06.330Z,68.97
2018-12-20T09:22:09.493Z,71.47
2018-12-20T09:25:12.685Z,68.00
2018-12-20T09:28:15.881Z,69.03
2018-12-20T09:31:19.073Z,72.40
2018-12-20T09:34:22.275Z,68.30
2018-12-20T09:37:25.465Z,74.60
2018-12-20T09:40:28.641Z,69.30
2018-12-20T09:43:32.146Z,69.07
2018-12-20T09:46:35.338Z,74.63
2018-12-20T09:49:38.557Z,73.37
2018-12-20T09:52:41.898Z,71.13
2018-12-20T09:55:45.046Z,74.37
2018-12-20T09:58:48.246Z,73.43
2018-12-20T10:01:51.322Z,73.23
2018-12-20T10:04:54.529Z,64.67
2018-12-20T10:07:57.822Z,69.77
2018-12-20T10:11:01.021Z,65.40
2018-12-20T10:14:04.210Z,69.40
2018-12-20T10:17:07.407Z,63.53
2018-12-20T10:20:13.834Z,70.47
2018-12-20T10:23:16.981Z,66.50
2018-12-20T10:26:20.157Z,65.00
2018-12-20T10:29:23.386Z,67.20
2018-12-20T10:32:26.553Z,66.87
2018-12-20T10:35:29.752Z,65.90
2018-12-20T10:38:32.948Z,67.80
2018-12-20T10:41:36.242Z,69.57
2018-12-20T10:44:40.545Z,69.70
2018-12-20T10:47:44.377Z,61.47
2018-12-20T10:50:47.679Z,60.67
2018-12-20T10:53:52.512Z,68.90
2018-12-20T10:56:55.705Z,65.30
2018-12-20T10:59:58.907Z,64.40
2018-12-20T11:03:07.686Z,60.87
2018-12-20T11:06:16.569Z,65.93
2018-12-20T11:09:26.166Z,64.63
2018-12-20T11:12:34.850Z,61.17
2018-12-20T11:15:38.026Z,61.13
2018-12-20T11:18:42.231Z,61.63
2018-12-20T11:21:45.768Z,61.17
2018-12-20T11:24:49.036Z,64.53
2018-12-20T11:27:52.226Z,59.00
2018-12-20T11:30:55.425Z,62.93
2018-12-20T11:33:58.700Z,56.60
2018-12-20T11:37:02.369Z,59.63
2018-12-20T11:40:07.693Z,55.93
2018-12-20T11:43:10.869Z,60.77
2018-12-20T11:46:14.074Z,63.73
2018-12-20T11:49:17.358Z,59.50
2018-12-20T11:52:20.593Z,56.77
2018-12-20T11:55:24.382Z,59.40
2018-12-20T11:58:27.693Z,62.13
2018-12-20T12:01:30.868Z,60.33
2018-12-20T12:04:34.082Z,62.73
2018-12-20T12:07:37.347Z,61.60
2018-12-20T12:10:40.574Z,56.07
2018-12-20T12:13:43.745Z,63.27
2018-12-20T12:16:47.190Z,67.97
2018-12-20T12:19:50.329Z,62.00
2018-12-20T12:22:53.681Z,63.53
2018-12-20T12:25:57.388Z,60.27
2018-12-20T12:29:00.667Z,66.90
2018-12-20T12:32:03.915Z,72.23
2018-12-20T12:35:07.276Z,65.10
2018-12-20T12:38:10.429Z,63.67
2018-12-20T12:41:13.653Z,65.47
2018-12-20T12:44:16.918Z,65.53
2018-12-20T12:47:24.582Z,64.03
2018-12-20T12:50:27.723Z,67.17
2018-12-20T12:53:30.878Z,63.80
2018-12-20T12:56:33.849Z,64.73
2018-12-20T12:59:37.012Z,64.70
2018-12-20T13:02:40.139Z,66.63
2018-12-20T13:05:43.371Z,69.60
2018-12-20T13:08:46.359Z,61.13
2018-12-20T13:11:49.668Z,69.47
2018-12-20T13:14:52.638Z,62.30
2018-12-20T13:17:55.630Z,63.93
2018-12-20T13:20:58.598Z,66.17
2018-12-20T13:24:02.746Z,65.13
2018-12-20T13:27:07.094Z,74.97
2018-12-20T13:30:11.447Z,75.13
2018-12-20T13:33:14.402Z,64.30
2018-12-20T13:36:17.733Z,71.97
2018-12-20T13:39:21.242Z,61.80
2018-12-20T13:42:24.343Z,66.50
2018-12-20T13:45:27.289Z,63.87
2018-12-20T13:48:30.305Z,68.13
2018-12-20T13:51:33.362Z,61.53
2018-12-20T13:54:36.592Z,68.47
2018-12-20T13:57:39.752Z,62.47
2018-12-20T14:00:42.995Z,60.50
2018-12-20T14:03:47.167Z,61.23
2018-12-20T14:06:50.511Z,60.37
2018-12-20T14:09:53.476Z,62.00
2018-12-20T14:12:56.482Z,57.80
2018-12-20T14:15:59.640Z,62.47
2018-12-20T14:19:02.945Z,64.73
2018-12-20T14:22:06.139Z,58.50
2018-12-20T14:25:09.112Z,70.03
2018-12-20T14:28:12.062Z,63.47
2018-12-20T14:31:15.054Z,67.03
2018-12-20T14:34:18.210Z,75.37
2018-12-20T14:37:21.742Z,66.53
2018-12-20T14:40:24.986Z,68.73
2018-12-20T14:43:27.939Z,67.13
2018-12-20T14:46:30.914Z,64.47
2018-12-20T14:49:34.013Z,66.00
2018-12-20T14:52:37.200Z,65.13
2018-12-20T14:55:40.161Z,69.63
2018-12-20T14:58:43.162Z,61.20
2018-12-20T15:01:46.114Z,62.43
2018-12-20T15:04:49.194Z,66.00
2018-12-20T15:07:52.157Z,66.17
2018-12-20T15:10:55.161Z,74.33
2018-12-20T15:13:58.206Z,70.20
2018-12-20T15:17:01.426Z,74.17
2018-12-20T15:20:05.909Z,61.13
2018-12-20T15:23:08.960Z,68.30
2018-12-20T15:26:11.922Z,73.33
2018-12-20T15:29:14.934Z,75.83
2018-12-20T15:32:17.893Z,69.40
2018-12-20T15:35:20.855Z,67.70
2018-12-20T15:38:23.886Z,72.50
2018-12-20T15:41:26.838Z,65.23
2018-12-20T15:44:29.871Z,64.43
2018-12-20T15:47:32.842Z,67.20
2018-12-20T15:50:35.894Z,61.53
2018-12-20T15:53:38.865Z,80.70
2018-12-20T15:56:41.975Z,76.33
2018-12-20T15:59:44.983Z,71.67
2018-12-20T16:02:48.714Z,68.90
2018-12-20T16:05:51.776Z,70.27
2018-12-20T16:08:56.102Z,63.27
2018-12-20T16:11:59.408Z,68.87
2018-12-20T16:15:02.812Z,61.07
2018-12-20T16:18:05.993Z,69.43
2018-12-20T16:21:09.191Z,69.90
2018-12-20T16:24:12.794Z,63.67
2018-12-20T16:27:16.608Z,61.43
2018-12-20T16:30:19.897Z,72.50
2018-12-20T16:33:23.094Z,63.07
2018-12-20T16:36:26.402Z,68.83
2018-12-20T16:39:29.585Z,72.80
2018-12-20T16:42:32.762Z,70.63
2018-12-20T16:45:35.969Z,72.03
2018-12-20T16:48:40.298Z,62.23
2018-12-20T16:51:44.520Z,68.07
2018-12-20T16:54:48.421Z,63.20
2018-12-20T16:57:51.721Z,63.37
2018-12-20T17:00:55.006Z,60.67
2018-12-20T17:03:58.219Z,58.40
2018-12-20T17:07:02.439Z,63.80
2018-12-20T17:10:06.349Z,61.90
2018-12-20T17:13:09.553Z,63.50
2018-12-20T17:16:12.856Z,63.50
2018-12-20T17:19:22.192Z,61.27
2018-12-20T17:22:21.444Z,63.60
2018-12-20T17:25:41.574Z,70.73
2018-12-20T17:28:51.454Z,56.80
2018-12-20T17:31:54.605Z,67.23
2018-12-20T17:34:57.913Z,61.30
2018-12-20T17:38:02.262Z,64.93
2018-12-20T17:41:05.633Z,68.27
2018-12-20T17:44:10.881Z,73.23
2018-12-20T17:47:14.084Z,70.47
2018-12-20T17:50:18.302Z,73.87
2018-12-20T17:53:21.486Z,70.60
2018-12-20T17:56:24.690Z,71.33
2018-12-20T17:59:27.883Z,65.67
2018-12-20T18:02:31.082Z,58.43
2018-12-20T18:05:34.272Z,56.40
2018-12-20T18:08:37.465Z,54.70
2018-12-20T18:11:40.660Z,54.93
2018-12-20T18:14:43.859Z,58.73
2018-12-20T18:17:47.061Z,52.37
2018-12-20T18:20:50.242Z,61.40
2018-12-20T18:23:53.450Z,58.60
2018-12-20T18:26:56.630Z,56.63
2018-12-20T18:29:59.833Z,66.03
2018-12-20T18:33:03.025Z,85.77
2018-12-20T18:36:07.250Z,69.37
2018-12-20T18:39:11.074Z,70.70
2018-12-20T18:42:14.254Z,65.20
2018-12-20T18:45:18.479Z,72.00
2018-12-20T18:48:21.662Z,56.67
2018-12-20T18:51:24.958Z,61.53
2018-12-20T18:54:28.171Z,64.00
2018-12-20T18:57:31.350Z,63.70
2018-12-20T19:00:36.098Z,60.80
2018-12-20T19:03:40.390Z,56.07
2018-12-20T19:06:44.687Z,64.73
2018-12-20T19:09:47.929Z,61.73
2018-12-20T19:12:52.169Z,66.10
2018-12-20T19:15:55.336Z,63.57
2018-12-20T19:18:58.774Z,63.07
2018-12-20T19:22:03.806Z,68.60
2018-12-20T19:25:07.731Z,74.80
2018-12-20T19:28:11.910Z,74.30
2018-12-20T19:31:15.486Z,61.50
2018-12-20T19:34:20.938Z,79.30
2018-12-20T19:37:26.676Z,70.03
2018-12-20T19:40:31.487Z,72.67
2018-12-20T19:43:35.839Z,84.07
2018-12-20T19:46:40.086Z,75.83
2018-12-20T19:49:43.316Z,71.00
2018-12-20T19:52:48.527Z,71.97
2018-12-20T19:55:51.866Z,58.17
2018-12-20T19:58:56.151Z,60.60
2018-12-20T20:02:04.626Z,66.13
2018-12-20T20:05:05.844Z,65.17
2018-12-20T20:08:11.207Z,63.03
2018-12-20T20:11:14.461Z,60.37
2018-12-20T20:14:18.706Z,60.93
2018-12-20T20:17:22.022Z,59.93
2018-12-20T20:20:27.251Z,62.07
2018-12-20T20:23:30.406Z,60.03
2018-12-20T20:26:34.658Z,62.23
2018-12-20T20:29:38.026Z,60.97
2018-12-20T20:32:41.622Z,61.07
2018-12-20T20:35:45.956Z,66.33
2018-12-20T20:38:50.305Z,58.80
2018-12-20T20:41:53.479Z,53.77
2018-12-20T20:44:56.805Z,65.77
2018-12-20T20:48:00.354Z,64.53
2018-12-20T20:51:03.674Z,61.30
2018-12-20T20:54:08.198Z,58.47
2018-12-20T20:57:13.794Z,63.90
2018-12-20T21:00:18.110Z,54.77
2018-12-20T21:03:21.295Z,61.30
2018-12-20T21:06:25.482Z,55.03
2018-12-20T21:09:30.607Z,56.43
2018-12-20T21:12:33.930Z,58.17
2018-12-20T21:15:37.146Z,55.80
2018-12-20T21:18:40.319Z,58.90
2018-12-20T21:21:43.701Z,67.23
2018-12-20T21:24:46.902Z,63.67
2018-12-20T21:27:50.129Z,61.07
2018-12-20T21:30:53.506Z,61.30
2018-12-20T21:33:56.923Z,62.93
2018-12-20T21:37:00.078Z,72.53
2018-12-20T21:40:05.323Z,70.23
2018-12-20T21:43:08.641Z,71.73
2018-12-20T21:46:14.239Z,81.80
2018-12-20T21:49:17.483Z,79.30
2018-12-20T21:52:21.443Z,68.43
2018-12-20T21:55:24.673Z,68.70
2018-12-20T21:58:32.414Z,63.13
2018-12-20T22:01:35.683Z,67.70
2018-12-20T22:04:38.929Z,65.77
2018-12-20T22:07:41.998Z,68.90
2018-12-20T22:10:45.179Z,65.87
2018-12-20T22:13:48.465Z,65.20
2018-12-20T22:16:51.698Z,58.93
2018-12-20T22:19:58.529Z,58.53
2018-12-20T22:23:00.151Z,61.73
2018-12-20T22:26:03.906Z,69.53
2018-12-20T22:29:07.419Z,68.23
2018-12-20T22:32:10.709Z,66.57
2018-12-20T22:35:13.924Z,73.80
2018-12-20T22:38:17.094Z,57.63
2018-12-20T22:41:20.313Z,61.00
2018-12-20T22:44:23.485Z,64.07
2018-12-20T22:47:26.915Z,67.20
2018-12-20T22:50:29.873Z,61.10
2018-12-20T22:53:32.898Z,56.10
2018-12-20T22:56:35.869Z,60.07
2018-12-20T22:59:39.485Z,60.27
2018-12-20T23:02:42.644Z,61.13
2018-12-20T23:05:45.870Z,52.17
2018-12-20T23:08:49.306Z,62.03
2018-12-20T23:11:52.990Z,59.20
2018-12-20T23:14:56.150Z,55.40
2018-12-20T23:17:59.886Z,59.83
2018-12-20T23:21:05.169Z,63.70
2018-12-20T23:24:08.535Z,63.80
2018-12-20T23:27:11.890Z,73.73
2018-12-20T23:30:15.150Z,80.00
2018-12-20T23:33:18.282Z,85.17
2018-12-20T23:36:21.494Z,70.77
2018-12-20T23:39:24.669Z,68.63
2018-12-20T23:42:27.868Z,64.73
2018-12-20T23:45:31.155Z,73.03
2018-12-20T23:48:34.513Z,66.73
2018-12-20T23:51:45.122Z,63.50
2018-12-20T23:54:43.005Z,66.50
2018-12-20T23:57:46.481Z,56.40
